createdAt,value
2022-10-24T00:01:19.584Z,90.17
2022-10-24T00:03:46.099Z,91.88
2022-10-24T00:06:13.645Z,90.97
2022-10-24T00:08:42.792Z,90.65
2022-10-24T00:11:22.009Z,92.34
2022-10-24T00:13:50.224Z,92.66
2022-10-24T00:16:17.678Z,94.05
2022-10-24T00:18:44.258Z,94.65
2022-10-24T00:21:10.762Z,93.21
2022-10-24T00:23:37.328Z,92.46
2022-10-24T00:26:05.013Z,93.36
2022-10-24T00:28:33.344Z,93.45
2022-10-24T00:30:59.898Z,93.96
2022-10-24T00:33:26.788Z,93.25
2022-10-24T00:35:53.808Z,91.18
2022-10-24T00:38:20.287Z,89.93
2022-10-24T00:40:46.700Z,89.28
2022-10-24T00:43:31.061Z,87.89
2022-10-24T00:46:00.134Z,87.69
2022-10-24T00:48:45.407Z,89.05
2022-10-24T00:51:28.509Z,90.83
2022-10-24T00:54:06.005Z,90.34
2022-10-24T00:56:35.975Z,88.36
2022-10-24T00:59:05.000Z,88.01
2022-10-24T01:01:31.563Z,89.12
2022-10-24T01:03:57.989Z,91.15
2022-10-24T01:06:36.401Z,92.27
2022-10-24T01:09:33.392Z,92.58
2022-10-24T01:12:21.472Z,90.69
2022-10-24T01:15:04.168Z,89.76
2022-10-24T01:18:07.174Z,89.28
2022-10-24T01:20:58.397Z,88.82
2022-10-24T01:23:57.469Z,88.52
2022-10-24T01:26:50.881Z,88.24
2022-10-24T01:29:29.353Z,87.93
2022-10-24T01:32:13.301Z,88.14
2022-10-24T01:34:56.997Z,88.22
2022-10-24T01:37:35.189Z,88.24
2022-10-24T01:40:11.014Z,88.11
2022-10-24T01:42:40.328Z,87.50
2022-10-24T01:45:09.844Z,87.57
2022-10-24T01:47:45.034Z,88.09
2022-10-24T01:50:14.518Z,88.48
2022-10-24T01:52:44.194Z,88.41
2022-10-24T01:55:11.865Z,88.62
2022-10-24T01:57:39.525Z,88.26
2022-10-24T02:00:08.726Z,88.34
2022-10-24T02:02:37.437Z,88.15
2022-10-24T02:05:21.232Z,88.22
2022-10-24T02:07:52.994Z,88.24
2022-10-24T02:10:26.341Z,88.37
2022-10-24T02:13:00.010Z,87.59
2022-10-24T02:15:31.220Z,87.85
2022-10-24T02:17:58.439Z,87.62
2022-10-24T02:20:33.298Z,88.21
2022-10-24T02:23:15.532Z,88.27
2022-10-24T02:28:22.636Z,88.11
2022-10-24T02:31:06.446Z,86.30
2022-10-24T02:33:36.107Z,86.43
2022-10-24T02:36:04.677Z,85.97
2022-10-24T02:38:34.942Z,85.19
2022-10-24T02:41:04.764Z,86.10
2022-10-24T02:43:32.770Z,86.77
2022-10-24T02:45:59.464Z,85.66
2022-10-24T02:48:34.294Z,86.86
2022-10-24T02:51:01.991Z,86.75
2022-10-24T02:53:29.144Z,86.14
2022-10-24T02:55:56.222Z,86.21
2022-10-24T02:58:22.791Z,85.54
2022-10-24T03:00:49.363Z,85.81
2022-10-24T03:03:15.849Z,86.20
2022-10-24T03:05:42.249Z,86.89
2022-10-24T03:08:08.679Z,86.99
2022-10-24T03:10:35.064Z,86.37
2022-10-24T03:13:01.481Z,85.89
2022-10-24T03:15:27.916Z,86.15
2022-10-24T03:17:54.288Z,86.41
2022-10-24T03:20:20.733Z,85.78
2022-10-24T03:22:47.132Z,85.64
2022-10-24T03:25:13.577Z,85.34
2022-10-24T03:27:40.004Z,85.55
2022-10-24T03:30:07.577Z,84.98
2022-10-24T03:32:34.420Z,85.01
2022-10-24T03:35:01.874Z,84.98
2022-10-24T03:37:29.037Z,84.76
2022-10-24T03:39:55.486Z,84.53
2022-10-24T03:42:22.319Z,84.45
2022-10-24T03:44:48.745Z,84.64
2022-10-24T03:47:15.205Z,84.14
2022-10-24T03:49:41.698Z,84.45
2022-10-24T03:52:08.104Z,84.65
2022-10-24T03:54:35.511Z,84.49
2022-10-24T03:57:02.206Z,84.78
2022-10-24T03:59:28.609Z,85.10
2022-10-24T04:01:55.155Z,85.53
2022-10-24T04:04:22.211Z,85.48
2022-10-24T04:06:48.691Z,85.15
2022-10-24T04:09:15.071Z,85.48
2022-10-24T04:11:41.540Z,85.46
2022-10-24T04:14:09.394Z,85.80
2022-10-24T04:16:36.291Z,85.79
2022-10-24T04:19:02.857Z,86.08
2022-10-24T04:21:29.337Z,86.21
2022-10-24T04:23:56.023Z,86.23
2022-10-24T04:26:22.476Z,85.90
2022-10-24T04:28:49.061Z,86.46
2022-10-24T04:31:18.299Z,86.89
2022-10-24T04:33:47.574Z,86.87
2022-10-24T04:36:14.001Z,86.60
2022-10-24T04:38:40.634Z,86.96
2022-10-24T04:41:09.860Z,86.31
2022-10-24T04:43:38.541Z,86.74
2022-10-24T04:46:05.199Z,86.83
2022-10-24T04:48:31.644Z,87.55
2022-10-24T04:50:58.377Z,87.64
2022-10-24T04:53:24.885Z,88.11
2022-10-24T04:55:51.638Z,88.17
2022-10-24T04:58:18.237Z,88.17
2022-10-24T05:00:48.508Z,87.53
2022-10-24T05:03:15.694Z,87.56
2022-10-24T05:05:42.120Z,86.59
2022-10-24T05:08:08.649Z,86.08
2022-10-24T05:10:35.210Z,86.58
2022-10-24T05:13:01.817Z,88.74
2022-10-24T05:15:29.870Z,90.73
2022-10-24T05:17:57.848Z,91.67
2022-10-24T05:20:24.769Z,92.94
2022-10-24T05:22:51.217Z,92.68
2022-10-24T05:25:18.813Z,94.80
2022-10-24T05:27:45.253Z,95.75
2022-10-24T05:30:12.151Z,95.22
2022-10-24T05:32:39.809Z,96.77
2022-10-24T05:35:07.461Z,95.77
2022-10-24T05:37:33.869Z,95.94
2022-10-24T05:40:00.306Z,95.96
2022-10-24T05:42:26.681Z,97.11
2022-10-24T05:44:53.191Z,96.06
2022-10-24T05:47:19.563Z,96.09
2022-10-24T05:49:45.971Z,96.12
2022-10-24T05:52:12.457Z,95.49
2022-10-24T05:54:55.208Z,94.99
2022-10-24T05:57:25.239Z,94.85
2022-10-24T05:59:51.691Z,96.13
2022-10-24T06:02:20.207Z,98.34
2022-10-24T06:04:48.187Z,100.00
2022-10-24T06:07:14.605Z,100.00
2022-10-24T06:09:41.713Z,100.00
2022-10-24T06:12:11.435Z,100.00
2022-10-24T06:14:38.959Z,100.00
2022-10-24T06:17:06.365Z,100.00
2022-10-24T06:19:33.048Z,100.00
2022-10-24T06:21:59.474Z,100.00
2022-10-24T06:24:25.935Z,100.00
2022-10-24T06:26:52.427Z,100.00
2022-10-24T06:29:18.832Z,100.00
2022-10-24T06:31:45.265Z,100.00
2022-10-24T06:34:11.802Z,100.00
2022-10-24T06:36:38.348Z,100.00
2022-10-24T06:39:05.045Z,100.00
2022-10-24T06:41:31.442Z,100.00
2022-10-24T06:43:57.961Z,100.00
2022-10-24T06:46:24.517Z,100.00
2022-10-24T06:48:55.204Z,100.00
2022-10-24T06:51:22.964Z,100.00
2022-10-24T06:53:49.405Z,100.00
2022-10-24T06:56:17.580Z,100.00
2022-10-24T06:58:44.785Z,100.00
2022-10-24T07:01:22.729Z,100.00
2022-10-24T07:03:50.105Z,100.00
2022-10-24T07:06:25.213Z,100.00
2022-10-24T07:08:53.606Z,100.00
2022-10-24T07:11:20.129Z,100.00
2022-10-24T07:13:47.639Z,100.00
2022-10-24T07:16:14.700Z,100.00
2022-10-24T07:18:41.933Z,100.00
2022-10-24T07:21:14.547Z,100.00
2022-10-24T07:23:41.397Z,100.00
2022-10-24T07:26:17.784Z,100.00
2022-10-24T07:28:46.587Z,100.00
2022-10-24T07:31:22.014Z,100.00
2022-10-24T07:33:48.635Z,100.00
2022-10-24T07:36:18.098Z,100.00
2022-10-24T07:38:44.709Z,100.00
2022-10-24T07:41:11.260Z,100.00
2022-10-24T07:43:37.946Z,100.00
2022-10-24T07:46:09.334Z,100.00
2022-10-24T07:48:36.394Z,100.00
2022-10-24T07:51:06.733Z,100.00
2022-10-24T07:53:33.796Z,100.00
2022-10-24T07:56:00.574Z,100.00
2022-10-24T07:58:27.909Z,100.00
2022-10-24T08:00:55.092Z,100.00
2022-10-24T08:03:21.572Z,100.00
2022-10-24T08:05:48.060Z,100.00
2022-10-24T08:13:32.295Z,100.00
2022-10-24T08:15:58.709Z,100.00
2022-10-24T08:18:25.126Z,100.00
2022-10-24T08:21:05.122Z,100.00
2022-10-24T08:23:33.529Z,100.00
2022-10-24T08:26:00.110Z,100.00
2022-10-24T08:28:26.597Z,100.00
2022-10-24T08:31:01.990Z,100.00
2022-10-24T08:33:28.823Z,100.00
2022-10-24T08:35:58.693Z,100.00
2022-10-24T08:38:25.385Z,100.00
2022-10-24T08:40:51.869Z,100.00
2022-10-24T08:43:19.410Z,100.00
2022-10-24T08:45:58.307Z,100.00
2022-10-24T08:48:32.051Z,100.00
2022-10-24T08:51:08.069Z,100.00
2022-10-24T08:53:34.533Z,100.00
2022-10-24T08:56:01.493Z,100.00
2022-10-24T08:58:34.361Z,100.00
2022-10-24T09:01:04.957Z,100.00
2022-10-24T09:03:55.981Z,100.00
2022-10-24T09:06:24.859Z,100.00
2022-10-24T09:09:12.633Z,100.00
2022-10-24T09:11:55.601Z,100.00
2022-10-24T09:14:26.822Z,100.00
2022-10-24T09:17:22.219Z,100.00
2022-10-24T09:20:00.390Z,100.00
2022-10-24T09:22:33.526Z,100.00
2022-10-24T09:25:07.380Z,100.00
2022-10-24T09:27:37.374Z,100.00
2022-10-24T09:30:06.373Z,100.00
2022-10-24T09:32:35.206Z,100.00
2022-10-24T09:35:07.150Z,99.84
2022-10-24T09:37:44.470Z,99.51
2022-10-24T09:40:21.659Z,100.00
2022-10-24T09:42:52.589Z,99.60
2022-10-24T09:45:40.799Z,99.55
2022-10-24T09:48:30.330Z,99.78
2022-10-24T09:50:57.962Z,98.84
2022-10-24T09:53:34.987Z,98.38
2022-10-24T09:56:14.866Z,98.09
2022-10-24T09:58:42.522Z,98.63
2022-10-24T10:01:15.200Z,98.67
2022-10-24T10:03:42.929Z,98.33
2022-10-24T10:06:18.649Z,99.63
2022-10-24T10:08:54.218Z,99.12
2022-10-24T10:11:26.897Z,99.35
2022-10-24T10:13:55.233Z,99.14
2022-10-24T10:16:30.753Z,99.30
2022-10-24T10:19:17.983Z,98.86
2022-10-24T10:21:56.875Z,99.32
2022-10-24T10:24:35.485Z,99.29
2022-10-24T10:27:02.991Z,98.96
2022-10-24T10:29:29.465Z,98.85
2022-10-24T10:32:07.762Z,98.27
2022-10-24T10:34:38.666Z,98.74
2022-10-24T10:37:25.750Z,99.10
2022-10-24T10:40:07.682Z,98.93
2022-10-24T10:43:06.906Z,98.95
2022-10-24T10:45:45.408Z,98.85
2022-10-24T10:48:37.597Z,99.19
2022-10-24T10:51:16.040Z,98.56
2022-10-24T10:53:49.911Z,98.89
2022-10-24T10:56:31.327Z,98.24
2022-10-24T10:59:09.910Z,98.38
2022-10-24T11:01:48.797Z,98.79
2022-10-24T11:04:52.762Z,98.91
2022-10-24T11:07:48.364Z,98.24
2022-10-24T11:10:23.163Z,97.84
2022-10-24T11:12:49.630Z,97.89
2022-10-24T11:15:21.841Z,96.20
2022-10-24T11:18:07.269Z,97.10
2022-10-24T11:20:33.701Z,96.42
2022-10-24T11:23:18.978Z,95.25
2022-10-24T11:25:48.370Z,95.38
2022-10-24T11:28:27.077Z,95.58
2022-10-24T11:31:00.706Z,95.49
2022-10-24T11:33:32.740Z,95.43
2022-10-24T11:36:12.460Z,94.88
2022-10-24T11:38:51.438Z,94.50
2022-10-24T11:41:28.061Z,94.60
2022-10-24T11:43:59.271Z,94.61
2022-10-24T11:46:40.806Z,94.68
2022-10-24T11:49:21.215Z,94.34
2022-10-24T11:52:26.302Z,93.70
2022-10-24T11:54:58.594Z,94.16
2022-10-24T11:57:29.055Z,93.60
2022-10-24T11:59:57.417Z,93.33
2022-10-24T12:03:02.714Z,92.81
2022-10-24T12:06:14.154Z,92.76
2022-10-24T12:09:10.923Z,92.56
2022-10-24T12:11:49.561Z,92.87
2022-10-24T12:14:22.117Z,92.60
2022-10-24T12:16:57.758Z,92.38
2022-10-24T12:19:26.286Z,92.39
2022-10-24T12:22:01.870Z,92.92
2022-10-24T12:24:32.772Z,92.61
2022-10-24T12:27:06.758Z,92.81
2022-10-24T12:29:35.919Z,92.41
2022-10-24T12:32:30.213Z,92.13
2022-10-24T12:35:29.893Z,91.97
2022-10-24T12:37:50.692Z,91.38
2022-10-24T12:40:45.024Z,91.45
2022-10-24T12:43:16.812Z,91.33
2022-10-24T12:45:43.573Z,91.13
2022-10-24T12:48:26.014Z,91.08
2022-10-24T12:51:28.393Z,91.28
2022-10-24T12:54:13.283Z,90.25
2022-10-24T12:56:52.475Z,90.77
2022-10-24T12:59:27.815Z,90.21
2022-10-24T13:02:13.108Z,90.28
2022-10-24T13:04:45.418Z,89.94
2022-10-24T13:07:18.192Z,89.62
2022-10-24T13:10:02.600Z,88.62
2022-10-24T13:12:36.156Z,88.99
2022-10-24T13:15:08.599Z,88.46
2022-10-24T13:17:59.821Z,88.59
2022-10-24T13:20:38.097Z,88.31
2022-10-24T13:23:18.153Z,87.72
2022-10-24T13:25:45.569Z,86.79
2022-10-24T13:28:24.133Z,87.41
2022-10-24T13:31:16.696Z,87.68
2022-10-24T13:33:45.019Z,88.28
2022-10-24T13:36:27.862Z,87.75
2022-10-24T13:39:00.642Z,88.45
2022-10-24T13:41:29.302Z,88.48
2022-10-24T13:44:05.622Z,88.24
2022-10-24T13:49:22.547Z,87.66
2022-10-24T13:51:53.617Z,88.10
2022-10-24T13:54:33.476Z,87.07
2022-10-24T13:57:02.145Z,87.18
2022-10-24T13:59:37.931Z,87.26
2022-10-24T14:02:08.353Z,85.34
2022-10-24T14:04:35.474Z,86.22
2022-10-24T14:07:07.683Z,85.27
2022-10-24T14:09:42.945Z,84.60
2022-10-24T14:12:24.858Z,84.06
2022-10-24T14:14:52.868Z,82.57
2022-10-24T14:17:27.280Z,80.91
2022-10-24T14:19:59.726Z,78.47
2022-10-24T14:22:34.739Z,77.51
2022-10-24T14:25:01.348Z,77.16
2022-10-24T14:27:29.229Z,76.00
2022-10-24T14:29:59.650Z,76.19
2022-10-24T14:32:29.772Z,75.81
2022-10-24T14:34:58.841Z,73.89
2022-10-24T14:37:33.030Z,75.72
2022-10-24T14:40:00.297Z,73.99
2022-10-24T14:42:27.464Z,75.26
2022-10-24T14:44:58.336Z,74.96
2022-10-24T14:47:29.350Z,74.87
2022-10-24T14:49:59.467Z,74.68
2022-10-24T14:52:38.906Z,74.43
2022-10-24T14:55:25.789Z,72.63
2022-10-24T14:57:53.772Z,73.24
2022-10-24T15:00:35.371Z,74.57
2022-10-24T15:03:02.347Z,74.05
2022-10-24T15:05:32.984Z,75.45
2022-10-24T15:08:24.849Z,75.43
2022-10-24T15:11:21.810Z,77.21
2022-10-24T15:14:05.559Z,75.50
2022-10-24T15:16:39.300Z,77.15
2022-10-24T15:19:12.507Z,78.74
2022-10-24T15:21:41.549Z,80.44
2022-10-24T15:24:21.523Z,81.53
2022-10-24T15:26:47.951Z,82.23
2022-10-24T15:29:14.366Z,83.01
2022-10-24T15:31:43.152Z,83.43
2022-10-24T15:34:14.617Z,84.55
2022-10-24T15:36:42.446Z,85.47
2022-10-24T15:39:13.457Z,85.63
2022-10-24T15:41:40.885Z,85.81
2022-10-24T15:44:25.481Z,86.70
2022-10-24T15:46:52.111Z,86.32
2022-10-24T15:49:18.955Z,86.24
2022-10-24T15:51:50.217Z,86.18
2022-10-24T15:54:19.757Z,86.75
2022-10-24T15:56:46.933Z,87.31
2022-10-24T15:59:13.378Z,87.89
2022-10-24T16:01:47.078Z,87.78
2022-10-24T16:04:14.118Z,88.53
2022-10-24T16:06:40.709Z,87.89
2022-10-24T16:09:14.682Z,88.68
2022-10-24T16:11:41.246Z,89.93
2022-10-24T16:14:07.737Z,93.08
2022-10-24T16:16:34.167Z,99.83
2022-10-24T16:19:00.656Z,100.00
2022-10-24T16:21:27.134Z,100.00
2022-10-24T16:23:54.839Z,100.00
2022-10-24T16:26:21.377Z,100.00
2022-10-24T16:28:48.554Z,100.00
2022-10-24T16:31:18.672Z,100.00
2022-10-24T16:33:46.085Z,100.00
2022-10-24T16:36:12.643Z,100.00
2022-10-24T16:38:39.121Z,100.00
2022-10-24T16:41:05.758Z,100.00
2022-10-24T16:43:32.205Z,100.00
2022-10-24T16:46:00.846Z,100.00
2022-10-24T16:48:28.130Z,100.00
2022-10-24T16:50:55.236Z,100.00
2022-10-24T16:53:23.918Z,100.00
2022-10-24T16:55:52.652Z,100.00
2022-10-24T16:58:19.598Z,100.00
2022-10-24T17:00:47.066Z,100.00
2022-10-24T17:03:13.763Z,100.00
2022-10-24T17:05:40.763Z,100.00
2022-10-24T17:08:07.479Z,100.00
2022-10-24T17:10:33.989Z,100.00
2022-10-24T17:13:01.837Z,100.00
2022-10-24T17:15:28.262Z,100.00
2022-10-24T17:17:54.718Z,100.00
2022-10-24T17:20:21.248Z,100.00
2022-10-24T17:22:47.818Z,100.00
2022-10-24T17:25:21.185Z,100.00
2022-10-24T17:27:48.687Z,100.00
2022-10-24T17:30:18.385Z,100.00
2022-10-24T17:32:45.192Z,100.00
2022-10-24T17:35:16.903Z,100.00
2022-10-24T17:38:29.234Z,100.00
2022-10-24T17:41:00.294Z,100.00
2022-10-24T17:43:28.526Z,100.00
2022-10-24T17:45:57.109Z,100.00
2022-10-24T17:48:24.258Z,100.00
2022-10-24T17:50:51.694Z,100.00
2022-10-24T17:53:18.603Z,100.00
2022-10-24T17:59:50.397Z,100.00
2022-10-24T18:02:16.910Z,100.00
2022-10-24T18:04:44.882Z,100.00
2022-10-24T18:07:11.517Z,100.00
2022-10-24T18:09:39.946Z,100.00
2022-10-24T18:12:06.866Z,100.00
2022-10-24T18:14:36.652Z,100.00
2022-10-24T18:17:03.333Z,100.00
2022-10-24T18:19:29.847Z,100.00
2022-10-24T18:21:56.307Z,100.00
2022-10-24T18:24:22.738Z,100.00
2022-10-24T18:26:49.278Z,100.00
2022-10-24T18:29:15.689Z,100.00
2022-10-24T18:31:42.161Z,100.00
2022-10-24T18:34:08.923Z,100.00
2022-10-24T18:36:36.363Z,100.00
2022-10-24T18:39:03.489Z,100.00
2022-10-24T18:41:35.062Z,100.00
2022-10-24T18:44:24.564Z,100.00
2022-10-24T18:46:51.527Z,100.00
2022-10-24T18:49:18.140Z,100.00
2022-10-24T18:51:44.526Z,100.00
2022-10-24T18:54:14.591Z,100.00
2022-10-24T18:56:42.158Z,100.00
2022-10-24T18:59:16.833Z,100.00
2022-10-24T19:01:49.363Z,100.00
2022-10-24T19:04:19.070Z,100.00
2022-10-24T19:06:47.049Z,100.00
2022-10-24T19:09:17.892Z,100.00
2022-10-24T19:11:44.354Z,100.00
2022-10-24T19:14:10.905Z,100.00
2022-10-24T19:16:37.891Z,100.00
2022-10-24T19:19:04.295Z,100.00
2022-10-24T19:21:30.646Z,100.00
2022-10-24T19:23:57.134Z,100.00
2022-10-24T19:26:23.497Z,100.00
2022-10-24T19:28:49.929Z,100.00
2022-10-24T19:31:16.414Z,100.00
2022-10-24T19:33:42.937Z,100.00
2022-10-24T19:36:09.777Z,100.00
2022-10-24T19:38:36.150Z,100.00
2022-10-24T19:41:06.266Z,100.00
2022-10-24T19:43:32.653Z,100.00
2022-10-24T19:48:49.348Z,100.00
2022-10-24T19:51:16.541Z,100.00
2022-10-24T19:53:43.856Z,100.00
2022-10-24T19:56:11.733Z,100.00
2022-10-24T19:58:38.137Z,100.00
2022-10-24T20:01:09.397Z,100.00
2022-10-24T20:03:36.697Z,100.00
2022-10-24T20:06:03.306Z,100.00
2022-10-24T20:08:29.672Z,100.00
2022-10-24T20:10:56.150Z,100.00
2022-10-24T20:13:22.689Z,100.00
2022-10-24T20:15:52.948Z,100.00
2022-10-24T20:18:19.694Z,100.00
2022-10-24T20:20:46.075Z,100.00
2022-10-24T20:23:12.454Z,100.00
2022-10-24T20:25:38.794Z,100.00
2022-10-24T20:28:05.235Z,100.00
2022-10-24T20:30:38.314Z,100.00
2022-10-24T20:33:04.689Z,100.00
2022-10-24T20:35:31.155Z,100.00
2022-10-24T20:37:57.540Z,100.00
2022-10-24T20:40:23.886Z,100.00
2022-10-24T20:42:53.882Z,100.00
2022-10-24T20:45:22.823Z,100.00
2022-10-24T20:47:49.725Z,100.00
2022-10-24T20:50:16.250Z,100.00
2022-10-24T20:52:42.795Z,100.00
2022-10-24T20:55:19.701Z,100.00
2022-10-24T20:57:55.789Z,100.00
2022-10-24T21:00:22.207Z,100.00
2022-10-24T21:02:51.270Z,100.00
2022-10-24T21:05:17.910Z,100.00
2022-10-24T21:07:48.591Z,100.00
2022-10-24T21:10:15.153Z,100.00
2022-10-24T21:12:43.975Z,100.00
2022-10-24T21:15:13.343Z,100.00
2022-10-24T21:17:39.843Z,100.00
2022-10-24T21:20:06.564Z,100.00
2022-10-24T21:22:33.033Z,100.00
2022-10-24T21:24:59.507Z,100.00
2022-10-24T21:27:25.953Z,100.00
2022-10-24T21:29:52.385Z,100.00
2022-10-24T21:32:18.817Z,100.00
2022-10-24T21:34:45.348Z,100.00
2022-10-24T21:37:11.800Z,100.00
2022-10-24T21:39:38.256Z,100.00
2022-10-24T21:42:05.412Z,100.00
2022-10-24T21:44:31.881Z,100.00
2022-10-24T21:46:58.379Z,100.00
2022-10-24T21:49:25.645Z,100.00
2022-10-24T21:51:52.362Z,100.00
2022-10-24T21:54:21.576Z,100.00
2022-10-24T21:56:48.590Z,100.00
2022-10-24T21:59:17.229Z,100.00
2022-10-24T22:01:45.708Z,100.00
2022-10-24T22:04:13.593Z,100.00
2022-10-24T22:06:40.890Z,100.00
2022-10-24T22:09:11.147Z,100.00
2022-10-24T22:11:37.966Z,100.00
2022-10-24T22:14:05.750Z,100.00
2022-10-24T22:16:32.903Z,100.00
2022-10-24T22:19:04.835Z,100.00
2022-10-24T22:21:31.377Z,100.00
2022-10-24T22:23:59.840Z,100.00
2022-10-24T22:26:27.136Z,100.00
2022-10-24T22:28:57.528Z,100.00
2022-10-24T22:31:26.301Z,100.00
2022-10-24T22:33:53.484Z,100.00
2022-10-24T22:36:24.517Z,100.00
2022-10-24T22:38:53.367Z,100.00
2022-10-24T22:41:23.828Z,100.00
2022-10-24T22:43:50.557Z,100.00
2022-10-24T22:46:35.238Z,100.00
2022-10-24T22:49:13.384Z,100.00
2022-10-24T22:51:40.069Z,100.00
2022-10-24T22:54:16.685Z,100.00
2022-10-24T22:56:43.514Z,100.00
2022-10-24T22:59:10.213Z,100.00
2022-10-24T23:01:48.865Z,100.00
2022-10-24T23:04:23.144Z,100.00
2022-10-24T23:06:52.693Z,100.00
2022-10-24T23:09:19.130Z,100.00
2022-10-24T23:11:45.968Z,100.00
2022-10-24T23:14:13.136Z,100.00
2022-10-24T23:16:50.218Z,100.00
2022-10-24T23:19:21.836Z,100.00
2022-10-24T23:22:00.708Z,100.00
2022-10-24T23:24:28.365Z,100.00
2022-10-24T23:27:13.158Z,100.00
2022-10-24T23:29:43.937Z,100.00
2022-10-24T23:32:18.885Z,100.00
2022-10-24T23:34:45.521Z,100.00
2022-10-24T23:37:17.470Z,100.00
2022-10-24T23:39:43.981Z,100.00
2022-10-24T23:42:10.527Z,100.00
2022-10-24T23:44:36.973Z,100.00
2022-10-24T23:47:06.539Z,100.00
2022-10-24T23:49:37.592Z,100.00
2022-10-24T23:52:16.346Z,100.00
2022-10-24T23:54:42.834Z,100.00
2022-10-24T23:57:13.970Z,100.00
2022-10-24T23:59:40.333Z,100.00
